Sweetwater, Florida
Current Conditions -  °F | °C
As of 10:53 PM on Wednesday 26 Nov 2014 (Local Time) from KMIA Reporting Station
Broken Clouds Broken Clouds  
Wind Chill: 60°   Ceiling: 20000
Heat Index: 60°   Visibility: 10mi
Dew Point: 44°   Wind: 8mph
Humidity: 55%   Direction: 340°NNW
Pressure: 30.19"   Gusts: NA
Location:  25.76°N, 80.37°W
Report Text: KMIA 270353Z 34007KT 10SM BKN200 16/07 A3019 RMK AO2 SLP223 T01560067 VISNO RWY 9L $
Loading
Personal Weather Stations






























Interactive Weather Map New forecast layout! Learn more

10-Day Weather Forecast

Advertisements
Track Severe Weather on mobile